首页
METAR-TAF:

METAR-TAF

机场 :

Salem-Leckrone Airport

Salem, 伊利诺伊州, 美国

纬度: 38-38-34N, 经度: 088-57-51W, 海拔: 175米

当前天气观测

该预报发布于16分钟前的05:35 UTC
静风
温度 3°C
湿度 100%
气压 1004 hPa
能見度: 2.8公里
阴天层高于300英尺
轻雾

METAR: KSLO 260535Z AUTO 00000KT 1 3/4SM BR OVC003 03/03 A2965 RMK AO2 T00300025

时间: 23:51 (05:51 UTC)


TAF: 丢失

超过4000个机场的气象观测和天气预报(METAR&TAF报告)。

可查询的气象台以黄色和红色小点在地图上表示。

将鼠标移到小点上方,可查看气象台名称。

然后点击查看天气观测和预报。

如需切换地图:点击带黑十字的绿色按钮放大地图;点击带横线的绿色按钮缩小地图;或者点击绿色箭头查看邻近地区的地图。


METAR-TAF: